Time;durP1;ratioP1;P1;durP2;ratioP2;P2;SDS_P1;SDS_P2;PMS_P1;PMS_P2;Temp;Humidity;BMP_temperature;BMP_pressure;BME280_temperature;BME280_humidity;BME280_pressure;Samples;Min_cycle;Max_cycle;Signal;HPM_P1;HPM_P2
2024/03/12 00:00:43;;;;;;;9.18;4.45;;;;;;;14.37;56.47;98433.97;4956511;28;20034;-81
2024/03/12 00:03:09;;;;;;;6.45;4.10;;;;;;;14.41;56.54;98440.59;4940262;28;20039;-80
2024/03/12 00:05:35;;;;;;;8.48;4.07;;;;;;;14.37;56.62;98414.78;4956806;28;20077;-80
2024/03/12 00:08:01;;;;;;;5.93;3.90;;;;;;;14.41;56.55;98426.63;4973347;28;20077;-80
2024/03/12 00:10:27;;;;;;;8.63;4.75;;;;;;;14.41;56.56;98419.56;4941132;28;20022;-81
2024/03/12 00:12:53;;;;;;;6.47;3.83;;;;;;;14.40;56.69;98415.28;4941048;28;20139;-80
2024/03/12 00:15:20;;;;;;;9.35;4.30;;;;;;;14.38;56.77;98411.19;4956291;28;20082;-81
2024/03/12 00:17:46;;;;;;;7.55;4.30;;;;;;;14.38;56.68;98409.38;4940556;28;20483;-80
2024/03/12 00:20:17;;;;;;;8.45;4.80;;;;;;;14.38;56.92;98404.13;4974171;28;20027;-81
2024/03/12 00:22:49;;;;;;;8.00;4.25;;;;;;;14.35;56.82;98395.72;4942516;28;20039;-80
2024/03/12 00:25:19;;;;;;;6.55;4.40;;;;;;;14.32;56.99;98378.47;4941765;28;20434;-81
2024/03/12 00:27:45;;;;;;;12.90;4.57;;;;;;;14.37;56.75;98384.06;4940723;28;20475;-77
2024/03/12 00:30:11;;;;;;;9.90;4.80;;;;;;;14.38;56.84;98372.63;4923905;28;20093;-81
2024/03/12 00:32:43;;;;;;;8.18;4.05;;;;;;;14.38;56.92;98371.78;4927587;28;20046;-81
2024/03/12 00:35:10;;;;;;;11.90;5.32;;;;;;;14.31;56.83;98358.44;4962436;28;20113;-81
2024/03/12 00:37:38;;;;;;;12.10;5.47;;;;;;;14.36;57.00;98360.59;4927745;28;20579;-82
2024/03/12 00:40:05;;;;;;;9.45;5.72;;;;;;;14.32;56.90;98359.25;4956337;28;20030;-87
2024/03/12 00:42:30;;;;;;;11.32;5.63;;;;;;;14.28;56.97;98361.38;4957631;28;20550;-90
2024/03/12 00:44:56;;;;;;;11.82;6.28;;;;;;;14.34;57.14;98360.75;4953579;28;20034;-83
2024/03/12 00:47:21;;;;;;;12.18;6.88;;;;;;;14.34;57.05;98360.75;4977784;28;20158;-82
2024/03/12 00:49:48;;;;;;;11.98;7.53;;;;;;;14.29;57.08;98345.47;4940456;28;20540;-82
2024/03/12 00:52:14;;;;;;;15.20;7.50;;;;;;;14.30;57.14;98356.78;4940608;28;20098;-82
2024/03/12 00:54:39;;;;;;;14.68;8.10;;;;;;;14.32;57.15;98348.75;4956629;28;20038;-84
2024/03/12 00:57:07;;;;;;;15.25;8.23;;;;;;;14.30;57.14;98352.34;4973487;28;20039;-83
2024/03/12 00:59:33;;;;;;;13.90;8.20;;;;;;;14.28;57.25;98348.25;4939437;28;20046;-82
2024/03/12 01:01:58;;;;;;;16.48;8.07;;;;;;;14.26;57.24;98348.41;4955606;28;20037;-83
2024/03/12 01:04:24;;;;;;;13.88;9.27;;;;;;;14.31;57.33;98350.56;4939879;28;20093;-82
2024/03/12 01:06:51;;;;;;;19.42;10.45;;;;;;;14.24;57.24;98331.94;4924360;28;20562;-82
2024/03/12 01:09:18;;;;;;;16.80;10.18;;;;;;;14.28;57.60;98338.56;4955987;28;20117;-83
2024/03/12 01:11:44;;;;;;;18.13;10.15;;;;;;;14.23;57.35;98326.84;4956144;28;20053;-83
2024/03/12 01:14:09;;;;;;;20.90;10.75;;;;;;;14.24;57.28;98320.63;4924365;28;20113;-83
2024/03/12 01:16:35;;;;;;;22.55;10.80;;;;;;;14.28;57.43;98328.06;4939279;28;20037;-83
2024/03/12 01:19:01;;;;;;;17.58;10.52;;;;;;;14.24;57.44;98315.38;4939966;28;20038;-83
2024/03/12 01:21:26;;;;;;;16.48;10.35;;;;;;;14.25;57.38;98306.53;4949164;28;20502;-83
2024/03/12 01:23:54;;;;;;;17.85;10.60;;;;;;;14.24;57.27;98305.69;4940391;28;20055;-83
2024/03/12 01:26:22;;;;;;;19.35;10.60;;;;;;;14.27;57.52;98300.16;4956389;28;20019;-82
2024/03/12 01:28:48;;;;;;;17.58;9.85;;;;;;;14.29;57.43;98298.22;4955910;28;20038;-83
2024/03/12 01:31:15;;;;;;;18.55;9.82;;;;;;;14.21;57.35;98285.00;4939758;28;20035;-83
2024/03/12 01:33:41;;;;;;;17.55;9.65;;;;;;;14.09;57.51;98273.09;4924387;28;20058;-82
2024/03/12 01:36:18;;;;;;;14.95;9.65;;;;;;;14.24;57.43;98289.13;4955899;28;20495;-82
2024/03/12 01:38:48;;;;;;;14.88;8.50;;;;;;;14.19;57.51;98281.72;4957649;28;20034;-83
2024/03/12 01:41:16;;;;;;;16.73;9.15;;;;;;;14.26;57.41;98289.78;4956372;28;20509;-82
2024/03/12 01:43:42;;;;;;;13.90;8.68;;;;;;;14.19;57.40;98276.44;4939145;28;20034;-82
2024/03/12 01:46:12;;;;;;;14.63;8.82;;;;;;;14.25;57.53;98277.66;4923417;28;20478;-82
2024/03/12 01:48:38;;;;;;;14.85;8.32;;;;;;;14.08;57.10;98260.94;4923563;28;20045;-82
2024/03/12 01:51:05;;;;;;;14.40;8.13;;;;;;;14.21;57.41;98287.63;4955710;28;20414;-82
2024/03/12 01:53:33;;;;;;;13.33;7.73;;;;;;;14.14;57.22;98270.84;4939942;28;20066;-82
2024/03/12 01:56:00;;;;;;;12.18;7.03;;;;;;;14.19;57.23;98281.72;4956370;28;20030;-81
2024/03/12 01:58:25;;;;;;;14.38;6.97;;;;;;;14.15;57.07;98269.03;4939356;28;20517;-81
2024/03/12 02:00:51;;;;;;;11.18;7.07;;;;;;;14.18;57.14;98280.03;4923759;28;20043;-81
2024/03/12 02:03:18;;;;;;;11.10;6.55;;;;;;;14.16;57.07;98276.75;4973203;28;20030;-82
2024/03/12 02:05:47;;;;;;;15.85;6.72;;;;;;;14.15;56.96;98277.72;4972715;28;20102;-82
2024/03/12 02:08:13;;;;;;;17.48;7.45;;;;;;;14.10;57.10;98265.09;4955355;28;20041;-82
2024/03/12 02:10:39;;;;;;;9.85;6.50;;;;;;;14.14;57.10;98275.25;4938737;28;20166;-82
2024/03/12 02:13:06;;;;;;;11.15;6.57;;;;;;;14.10;57.04;98272.94;4939615;28;20045;-82
2024/03/12 02:15:34;;;;;;;10.85;6.07;;;;;;;14.14;57.05;98283.97;4972281;28;20102;-82
2024/03/12 02:17:59;;;;;;;11.90;6.90;;;;;;;14.06;57.31;98268.16;4939693;28;20051;-82
2024/03/12 02:20:26;;;;;;;11.25;6.35;;;;;;;14.11;57.14;98274.59;4973760;28;20078;-82
2024/03/12 02:22:55;;;;;;;10.68;6.20;;;;;;;14.10;57.14;98267.72;4976460;28;20481;-83
2024/03/12 02:25:21;;;;;;;12.02;6.95;;;;;;;14.10;57.19;98272.09;4961761;28;20029;-83
2024/03/12 02:27:46;;;;;;;12.50;6.57;;;;;;;14.08;57.11;98263.56;4977513;28;20030;-83
2024/03/12 02:30:12;;;;;;;13.07;6.90;;;;;;;14.08;57.00;98253.06;4995513;28;20116;-83
2024/03/12 02:32:40;;;;;;;12.27;6.25;;;;;;;14.08;56.87;98253.88;4961531;28;20050;-82
2024/03/12 02:35:10;;;;;;;10.30;5.97;;;;;;;14.05;56.97;98246.31;4977404;28;20023;-83
2024/03/12 02:37:35;;;;;;;16.45;6.32;;;;;;;14.01;57.05;98250.22;4995215;28;20030;-83
2024/03/12 02:40:01;;;;;;;13.90;6.22;;;;;;;14.03;56.73;98247.47;4977655;28;20057;-83
2024/03/12 02:42:28;;;;;;;14.02;6.40;;;;;;;14.02;56.70;98240.56;4978197;28;20081;-83
2024/03/12 02:44:54;;;;;;;9.63;6.07;;;;;;;14.02;56.48;98243.19;4978234;28;20041;-82
2024/03/12 02:47:20;;;;;;;9.70;6.00;;;;;;;14.00;56.53;98253.00;4977976;28;20030;-82
2024/03/12 02:49:46;;;;;;;9.98;6.18;;;;;;;13.94;56.74;98250.00;4995096;28;20405;-81
2024/03/12 02:52:12;;;;;;;12.07;6.00;;;;;;;13.96;56.74;98251.66;4976684;28;20133;-81
2024/03/12 02:54:37;;;;;;;13.90;6.78;;;;;;;13.97;56.52;98266.44;4961092;28;20041;-81
2024/03/12 02:57:03;;;;;;;12.70;6.40;;;;;;;13.97;56.64;98258.56;4960689;28;20058;-81
2024/03/12 02:59:30;;;;;;;9.98;5.90;;;;;;;13.97;56.75;98256.75;4976952;28;20529;-81
2024/03/12 03:01:55;;;;;;;8.30;5.63;;;;;;;13.88;56.76;98253.25;4993899;28;20037;-82
2024/03/12 03:04:24;;;;;;;13.82;6.20;;;;;;;13.94;56.70;98267.53;4961061;28;20038;-81
2024/03/12 03:06:52;;;;;;;14.43;6.25;;;;;;;13.93;56.54;98264.09;4977709;28;20109;-82
2024/03/12 03:09:18;;;;;;;10.13;5.88;;;;;;;13.92;56.69;98265.06;4945668;28;20050;-81
2024/03/12 03:11:45;;;;;;;11.70;6.07;;;;;;;13.94;56.60;98263.09;4944647;28;20042;-82
2024/03/12 03:14:10;;;;;;;12.90;6.18;;;;;;;13.91;56.60;98260.78;4977326;28;20030;-82
2024/03/12 03:16:36;;;;;;;12.15;6.50;;;;;;;13.88;56.50;98242.75;4960800;28;20034;-82
2024/03/12 03:19:01;;;;;;;13.85;6.30;;;;;;;13.92;56.38;98238.00;4994350;28;20117;-82
2024/03/12 03:21:27;;;;;;;11.82;5.90;;;;;;;13.86;56.48;98223.69;4993805;28;20121;-82
2024/03/12 03:23:52;;;;;;;16.38;6.60;;;;;;;13.91;56.47;98223.22;4960124;28;20497;-82
2024/03/12 03:26:18;;;;;;;12.57;6.30;;;;;;;13.88;56.26;98220.91;4994459;28;20105;-82
2024/03/12 03:28:44;;;;;;;15.25;6.40;;;;;;;13.83;56.22;98229.22;4976809;28;20410;-82
2024/03/12 03:31:13;;;;;;;12.73;6.47;;;;;;;13.77;55.99;98221.13;4976405;28;20038;-82
2024/03/12 03:33:40;;;;;;;21.52;6.97;;;;;;;13.78;56.01;98230.66;4961312;28;20046;-82
2024/03/12 03:36:06;;;;;;;10.57;6.20;;;;;;;13.76;56.26;98233.44;4944272;28;20034;-84
2024/03/12 03:38:33;;;;;;;9.73;6.30;;;;;;;13.74;56.14;98230.13;4976082;28;20043;-83
2024/03/12 03:40:59;;;;;;;11.98;6.18;;;;;;;13.70;56.24;98219.13;4976013;28;20121;-83
2024/03/12 03:43:24;;;;;;;10.80;6.15;;;;;;;13.73;56.41;98225.88;4943839;28;20117;-83
2024/03/12 03:45:50;;;;;;;16.35;6.90;;;;;;;13.70;56.31;98220.91;4993853;28;20033;-83
2024/03/12 03:48:16;;;;;;;15.00;7.20;;;;;;;13.71;56.29;98220.78;4993907;28;20512;-85
2024/03/12 03:50:41;;;;;;;9.75;6.15;;;;;;;13.67;56.38;98218.59;4960246;28;20046;-83
2024/03/12 03:53:08;;;;;;;10.38;6.15;;;;;;;13.69;56.27;98217.47;4993593;28;20462;-81
2024/03/12 03:55:34;;;;;;;14.85;6.20;;;;;;;13.64;56.41;98211.03;4993728;28;20500;-84
2024/03/12 03:57:59;;;;;;;13.30;6.60;;;;;;;13.71;56.53;98214.69;4959521;28;20046;-82
2024/03/12 04:00:28;;;;;;;13.55;6.47;;;;;;;13.63;56.31;98199.72;4943582;28;20486;-83
2024/03/12 04:02:54;;;;;;;15.52;6.85;;;;;;;13.71;56.57;98217.31;4960629;28;20030;-82
2024/03/12 04:05:21;;;;;;;11.35;6.25;;;;;;;13.66;56.43;98199.44;4976017;28;20018;-82
2024/03/12 04:07:48;;;;;;;13.07;6.72;;;;;;;13.68;56.58;98204.53;4976055;28;20038;-82
2024/03/12 04:10:15;;;;;;;12.30;5.85;;;;;;;13.65;56.63;98192.53;4993796;28;20080;-82
2024/03/12 04:12:46;;;;;;;10.80;6.10;;;;;;;13.69;56.73;98206.16;4959541;28;20038;-83
2024/03/12 04:15:12;;;;;;;15.88;5.88;;;;;;;13.67;56.45;98200.25;4959751;28;20030;-83
2024/03/12 04:17:39;;;;;;;8.80;6.22;;;;;;;13.74;56.46;98209.13;4960086;28;20406;-83
2024/03/12 04:20:09;;;;;;;10.77;6.18;;;;;;;13.72;56.70;98217.16;4959928;28;20464;-83
2024/03/12 04:22:38;;;;;;;10.77;5.72;;;;;;;13.74;56.50;98220.47;4961318;28;20492;-83
2024/03/12 04:25:07;;;;;;;10.68;5.97;;;;;;;13.71;56.42;98222.56;4992541;28;20053;-82
2024/03/12 04:27:36;;;;;;;11.32;5.97;;;;;;;13.74;56.68;98222.25;4974279;28;20518;-78
2024/03/12 04:30:05;;;;;;;11.15;5.95;;;;;;;13.71;56.65;98214.69;4976481;28;20102;-78
2024/03/12 04:32:30;;;;;;;10.90;5.60;;;;;;;13.75;56.70;98226.53;4961809;28;20026;-78
2024/03/12 04:34:56;;;;;;;9.23;4.70;;;;;;;13.99;68.42;98227.72;4993025;28;20030;-78
2024/03/12 04:37:22;;;;;;;9.65;4.85;;;;;;;14.03;66.12;98237.78;4958784;28;20133;-84
2024/03/12 04:39:48;;;;;;;10.15;4.65;;;;;;;14.04;65.30;98223.69;4965124;28;20045;-85
2024/03/12 04:42:14;;;;;;;10.48;4.70;;;;;;;14.08;66.20;98224.19;4958441;28;20068;-87
2024/03/12 04:44:40;;;;;;;11.48;4.63;;;;;;;14.06;65.14;98221.72;4959161;28;20026;-78
2024/03/12 04:47:05;;;;;;;12.27;4.72;;;;;;;14.02;65.03;98220.38;4943499;28;20041;-77
2024/03/12 04:49:31;;;;;;;13.35;4.75;;;;;;;13.97;64.73;98211.31;4942518;28;20076;-79
2024/03/12 04:51:56;;;;;;;10.98;4.72;;;;;;;13.93;64.37;98211.63;4958658;28;20113;-77
2024/03/12 04:54:22;;;;;;;9.80;4.13;;;;;;;13.93;64.16;98211.63;4958778;28;20092;-81
2024/03/12 04:56:50;;;;;;;9.13;4.15;;;;;;;13.91;65.69;98205.69;4943021;28;20038;-76
2024/03/12 04:59:16;;;;;;;9.20;4.85;;;;;;;13.94;65.50;98208.00;4992747;28;20105;-77
2024/03/12 05:01:47;;;;;;;8.90;4.82;;;;;;;13.91;64.92;98213.56;4975548;28;20054;-84
2024/03/12 05:04:13;;;;;;;16.23;4.95;;;;;;;13.87;64.91;98220.09;4975372;28;20097;-80
2024/03/12 05:06:39;;;;;;;7.45;4.38;;;;;;;13.88;64.86;98234.03;4974285;28;20042;-84
2024/03/12 05:09:06;;;;;;;10.25;4.78;;;;;;;13.83;64.47;98220.53;4939859;28;20526;-83
2024/03/12 05:11:32;;;;;;;8.27;4.30;;;;;;;13.83;64.56;98231.03;4956603;28;20104;-84
2024/03/12 05:13:57;;;;;;;9.70;4.90;;;;;;;13.78;64.38;98221.00;4955894;28;20042;-84
2024/03/12 05:16:26;;;;;;;7.93;5.05;;;;;;;13.75;64.10;98211.63;4955414;28;20124;-84
2024/03/12 05:18:53;;;;;;;9.30;4.32;;;;;;;13.78;64.17;98228.03;4956464;28;20124;-84
2024/03/12 05:21:21;;;;;;;9.48;5.18;;;;;;;13.74;64.23;98238.00;4972493;28;20027;-85
2024/03/12 05:23:51;;;;;;;9.13;5.03;;;;;;;13.72;64.15;98238.13;4973459;28;20030;-86
2024/03/12 05:26:17;;;;;;;7.82;4.88;;;;;;;13.71;64.07;98246.16;4958971;28;20054;-84
2024/03/12 05:28:44;;;;;;;10.27;5.38;;;;;;;13.62;64.13;98239.22;4959462;28;20049;-84
2024/03/12 05:31:09;;;;;;;8.63;5.07;;;;;;;13.61;64.15;98246.22;4959097;28;20043;-83
2024/03/12 05:33:38;;;;;;;12.80;5.25;;;;;;;13.63;64.21;98259.19;4991847;28;20049;-85
2024/03/12 05:36:11;;;;;;;9.40;5.07;;;;;;;13.63;64.21;98261.81;4942312;28;20026;-84
2024/03/12 05:38:44;;;;;;;9.23;5.43;;;;;;;13.63;64.37;98274.94;4975478;28;20031;-83
2024/03/12 05:49:11;;;;;;;11.70;5.38;;;;;;;13.50;64.12;98265.63;4964833;28;20065;-83
2024/03/12 05:51:38;;;;;;;8.65;5.20;;;;;;;13.52;64.16;98273.34;4992272;28;20141;-84
2024/03/12 05:54:07;;;;;;;10.80;5.17;;;;;;;13.52;64.08;98286.44;4959463;28;20125;-85
2024/03/12 05:56:35;;;;;;;10.15;4.93;;;;;;;13.55;64.32;98278.28;4978730;28;20030;-85
2024/03/12 05:59:01;;;;;;;11.47;5.30;;;;;;;13.42;64.25;98249.00;4978293;28;20050;-85
2024/03/12 06:01:30;;;;;;;11.73;5.35;;;;;;;13.52;64.30;98261.06;4995595;28;20049;-84
2024/03/12 06:03:57;;;;;;;11.07;5.22;;;;;;;13.50;64.20;98257.75;4963459;28;20058;-84
2024/03/12 06:06:26;;;;;;;10.00;4.90;;;;;;;13.53;64.22;98262.69;4979133;28;20026;-84
2024/03/12 06:08:51;;;;;;;10.98;5.35;;;;;;;13.52;64.35;98266.31;4977848;28;20486;-84
2024/03/12 06:11:18;;;;;;;11.88;5.25;;;;;;;13.46;64.22;98242.50;4978515;28;20030;-84
2024/03/12 06:13:43;;;;;;;11.63;5.30;;;;;;;13.48;64.02;98249.22;4979162;28;20038;-82
2024/03/12 06:16:09;;;;;;;8.43;5.00;;;;;;;13.50;64.47;98249.88;4946189;28;20423;-82
2024/03/12 06:18:35;;;;;;;11.45;5.50;;;;;;;13.51;64.37;98243.69;4996211;28;20402;-84
2024/03/12 06:21:00;;;;;;;9.48;4.88;;;;;;;13.49;64.42;98243.00;4978262;28;20030;-85
2024/03/12 06:23:29;;;;;;;10.90;5.35;;;;;;;13.47;64.21;98231.84;4962336;28;20089;-84
2024/03/12 06:25:55;;;;;;;9.88;4.70;;;;;;;13.50;64.09;98231.53;4962131;28;20117;-84
2024/03/12 06:28:25;;;;;;;8.52;4.80;;;;;;;13.49;64.40;98245.63;4978400;28;20569;-83
2024/03/12 06:30:53;;;;;;;9.02;4.97;;;;;;;13.46;64.46;98239.88;4963041;28;20082;-84
2024/03/12 06:33:19;;;;;;;8.13;5.00;;;;;;;13.46;64.33;98240.69;4979242;28;20045;-84
2024/03/12 06:35:47;;;;;;;9.63;5.13;;;;;;;13.37;64.27;98236.31;4996633;28;20026;-85
2024/03/12 06:38:20;;;;;;;7.38;4.13;;;;;;;13.44;64.29;98260.13;4978019;28;20465;-83
2024/03/12 06:40:48;;;;;;;8.80;4.60;;;;;;;13.44;64.50;98273.25;4963800;28;20038;-84
2024/03/12 06:43:22;;;;;;;9.27;4.88;;;;;;;13.44;64.53;98287.22;4980002;28;20120;-84
2024/03/12 06:45:49;;;;;;;7.75;4.63;;;;;;;13.44;64.38;98278.50;4995923;28;20052;-83
2024/03/12 06:48:19;;;;;;;8.82;4.57;;;;;;;13.45;64.06;98285.41;4995769;28;20084;-85
2024/03/12 06:50:45;;;;;;;9.23;5.00;;;;;;;13.44;64.38;98287.22;4961974;28;20033;-83
2024/03/12 06:53:14;;;;;;;8.70;5.03;;;;;;;13.44;64.29;98268.00;4994504;28;20030;-85
2024/03/12 06:55:41;;;;;;;8.15;4.55;;;;;;;13.41;64.42;98260.44;4947328;28;20041;-85
2024/03/12 06:58:11;;;;;;;8.43;4.90;;;;;;;13.42;64.44;98267.34;4946016;28;20038;-87
2024/03/12 07:00:37;;;;;;;10.50;4.35;;;;;;;13.47;64.43;98271.19;4946498;28;20505;-85
2024/03/12 07:03:06;;;;;;;7.88;4.05;;;;;;;13.57;68.97;98255.38;4977709;28;20026;-78
2024/03/12 07:05:36;;;;;;;6.78;4.22;;;;;;;13.54;67.57;98225.03;4959879;28;20034;-82
2024/03/12 07:08:05;;;;;;;9.35;4.78;;;;;;;13.61;66.76;98227.06;4945688;28;20094;-82
2024/03/12 07:10:33;;;;;;;5.57;3.90;;;;;;;13.61;66.56;98214.75;4961801;28;20030;-84
2024/03/12 07:12:59;;;;;;;6.90;4.07;;;;;;;13.63;66.47;98204.97;4960050;28;20108;-81
2024/03/12 07:15:27;;;;;;;6.15;4.18;;;;;;;13.65;66.29;98192.53;4963738;28;20027;-86
2024/03/12 07:17:54;;;;;;;7.37;4.27;;;;;;;13.62;66.12;98176.28;4978884;28;20084;-85
2024/03/12 07:20:21;;;;;;;6.50;3.92;;;;;;;13.64;66.09;98167.25;4977982;28;20034;-83
2024/03/12 07:22:48;;;;;;;5.27;3.63;;;;;;;13.72;65.68;98171.75;4977296;28;20089;-84
2024/03/12 07:25:15;;;;;;;6.22;3.90;;;;;;;13.75;65.50;98189.81;4960494;28;20521;-85
2024/03/12 07:27:42;;;;;;;7.00;4.10;;;;;;;13.79;65.17;98206.06;4945619;28;20466;-85
2024/03/12 07:30:11;;;;;;;6.85;4.07;;;;;;;13.84;64.98;98224.81;4963590;28;20069;-84
2024/03/12 07:32:38;;;;;;;;;;;;;;;13.93;64.61;98229.16;4976920;28;20068;-78
2024/03/12 07:35:05;;;;;;;7.57;3.40;;;;;;;14.07;66.41;98239.13;4984115;28;19910;-87
2024/03/12 07:37:39;;;;;;;7.32;3.60;;;;;;;14.13;66.23;98229.81;4945536;28;20038;-80
2024/03/12 07:40:11;;;;;;;10.45;3.38;;;;;;;14.13;66.09;98214.06;4978358;28;20474;-84
2024/03/12 07:42:38;;;;;;;6.25;3.67;;;;;;;14.12;65.84;98209.78;4946025;28;20042;-81
2024/03/12 07:45:06;;;;;;;10.43;4.80;;;;;;;14.10;66.47;98217.00;4944326;28;20066;-82
2024/03/12 07:47:32;;;;;;;12.40;4.03;;;;;;;14.37;69.99;98208.16;4965244;28;20033;-80
2024/03/12 07:49:57;;;;;;;16.73;5.03;;;;;;;14.60;70.30;98203.25;4945020;28;20034;-80
2024/03/12 07:52:24;;;;;;;9.63;4.30;;;;;;;14.55;68.65;98196.78;4944768;28;20133;-79
2024/03/12 07:54:50;;;;;;;6.72;4.30;;;;;;;14.55;68.40;98218.63;4961308;28;20109;-82
2024/03/12 07:57:18;;;;;;;9.45;4.80;;;;;;;14.46;67.96;98215.13;4960450;28;20500;-80
2024/03/12 07:59:43;;;;;;;8.10;4.55;;;;;;;14.45;67.43;98215.25;4977063;28;20054;-80
2024/03/12 08:02:12;;;;;;;12.68;4.88;;;;;;;14.42;67.27;98231.31;4976513;28;20030;-79
2024/03/12 08:04:42;;;;;;;10.35;4.97;;;;;;;14.38;67.06;98238.69;4977294;28;20030;-80
2024/03/12 08:07:13;;;;;;;8.63;5.72;;;;;;;14.35;67.02;98248.69;4961456;28;20100;-79
2024/03/12 08:09:38;;;;;;;10.10;6.00;;;;;;;14.33;66.70;98259.34;4961119;28;20061;-81
2024/03/12 08:12:04;;;;;;;11.90;6.18;;;;;;;14.32;66.74;98262.94;4943421;28;20022;-84
2024/03/12 08:14:33;;;;;;;10.38;6.57;;;;;;;14.34;66.56;98268.03;4944285;28;20037;-88
2024/03/12 08:16:59;;;;;;;10.13;6.65;;;;;;;14.31;66.59;98269.19;4943934;28;20515;-81
2024/03/12 08:19:27;;;;;;;13.23;7.25;;;;;;;14.23;66.41;98283.06;4943680;28;20038;-79
2024/03/12 08:21:53;;;;;;;10.82;7.22;;;;;;;14.23;66.50;98293.56;4960536;28;20034;-84
2024/03/12 08:24:19;;;;;;;15.70;7.57;;;;;;;14.16;66.28;98289.06;4976245;28;20043;-83
2024/03/12 08:26:44;;;;;;;11.10;4.32;;;;;;;14.54;76.12;98292.31;4960240;28;20075;-75
2024/03/12 08:29:11;;;;;;;19.65;4.97;;;;;;;14.83;73.87;98289.41;4993980;28;20038;-78
2024/03/12 08:31:38;;;;;;;16.85;4.30;;;;;;;15.18;72.15;98283.19;4960686;28;20383;-79
2024/03/12 08:34:15;;;;;;;17.13;4.20;;;;;;;15.41;70.09;98292.34;4946140;28;20041;-83
2024/03/12 08:36:42;;;;;;;15.68;3.90;;;;;;;15.36;68.78;98284.91;4965629;28;20062;-83
2024/03/12 08:39:11;;;;;;;10.65;4.38;;;;;;;15.35;68.37;98286.72;4950741;28;20031;-87
2024/03/12 08:41:44;;;;;;;9.73;4.88;;;;;;;15.24;67.85;98284.34;4973090;23;20063;-82
2024/03/12 08:44:14;;;;;;;18.35;3.80;;;;;;;15.33;70.51;98291.31;4974395;28;20090;-78
2024/03/12 08:46:45;;;;;;;15.68;3.97;;;;;;;15.65;69.77;98284.50;4988003;28;20027;-85
2024/03/12 08:49:13;;;;;;;18.83;4.22;;;;;;;15.95;67.97;98290.19;4963332;28;20046;-83
2024/03/12 08:51:39;;;;;;;21.27;4.70;;;;;;;16.21;66.59;98290.06;4957844;28;20030;-88
2024/03/12 08:54:08;;;;;;;20.75;3.83;;;;;;;16.31;65.60;98276.72;4972368;28;20521;-86
2024/03/12 08:56:40;;;;;;;19.50;3.90;;;;;;;16.53;64.50;98277.88;4973068;28;20027;-86
2024/03/12 08:59:07;;;;;;;16.63;4.20;;;;;;;16.70;63.34;98280.47;4972311;28;20041;-85
2024/03/12 09:01:34;;;;;;;13.45;3.75;;;;;;;16.79;63.19;98272.41;4940707;28;20501;-84
2024/03/12 09:04:02;;;;;;;16.05;3.83;;;;;;;16.94;62.38;98264.63;4940672;28;20486;-87
2024/03/12 09:06:32;;;;;;;12.48;3.53;;;;;;;17.10;61.88;98276.94;4972480;28;20105;-87
2024/03/12 09:09:01;;;;;;;17.65;4.38;;;;;;;17.19;61.48;98275.13;4973255;28;20062;-88
2024/03/12 09:11:29;;;;;;;17.73;3.90;;;;;;;17.44;60.90;98275.84;4973927;28;20037;-87
2024/03/12 09:13:58;;;;;;;17.35;4.05;;;;;;;17.69;60.27;98263.31;4974081;28;20081;-88
2024/03/12 09:16:23;;;;;;;16.80;5.10;;;;;;;17.80;59.32;98253.34;4975737;28;20058;-84
2024/03/12 09:18:50;;;;;;;18.83;5.55;;;;;;;17.98;58.36;98255.72;4961118;28;20027;-90
2024/03/12 09:21:17;;;;;;;20.80;5.60;;;;;;;18.43;57.46;98251.41;4972675;28;20039;-79
2024/03/12 09:23:45;;;;;;;13.60;4.15;;;;;;;18.94;57.30;98245.47;4951768;28;20509;-80
2024/03/12 09:26:13;;;;;;;19.38;4.72;;;;;;;19.93;56.19;98247.66;4953693;29;20467;-84
2024/03/12 09:28:40;;;;;;;15.63;4.82;;;;;;;20.55;54.44;98240.81;4955596;28;20066;-89
2024/03/12 09:31:27;;;;;;;20.27;4.80;;;;;;;20.49;53.95;98241.59;4957911;28;20495;-89
2024/03/12 09:33:56;;;;;;;21.40;5.43;;;;;;;20.60;53.43;98241.09;4961206;28;20087;-87
2024/03/12 09:36:21;;;;;;;;;;;;;;;20.37;53.42;98251.91;4957369;29;20043;-80
2024/03/12 09:38:50;;;;;;;15.07;4.97;;;;;;;20.11;53.56;98257.00;4957481;29;19973;-79
2024/03/12 09:41:16;;;;;;;15.88;5.78;;;;;;;19.92;53.50;98258.44;4924306;29;20126;-80
2024/03/12 09:43:44;;;;;;;11.68;5.50;;;;;;;19.71;53.82;98258.19;4924113;29;20027;-79
2024/03/12 09:46:12;;;;;;;11.45;6.03;;;;;;;19.77;53.72;98255.88;4956215;29;20086;-80
2024/03/12 09:48:44;;;;;;;13.77;6.43;;;;;;;19.87;53.37;98256.34;4940525;29;20031;-78
2024/03/12 09:51:19;;;;;;;14.52;6.10;;;;;;;19.67;53.93;98261.41;4958417;28;20043;-88
2024/03/12 09:53:48;;;;;;;14.88;6.10;;;;;;;19.59;53.88;98259.69;4957125;28;20099;-82
2024/03/12 09:56:18;;;;;;;14.77;6.40;;;;;;;19.52;53.91;98253.53;4971974;28;20081;-81
2024/03/12 09:58:47;;;;;;;12.50;6.07;;;;;;;19.74;53.33;98259.66;4969438;28;20031;-83
2024/03/12 10:01:14;;;;;;;12.90;5.90;;;;;;;19.92;52.80;98259.25;4922745;29;20125;-83
2024/03/12 10:03:41;;;;;;;14.20;6.03;;;;;;;20.68;51.28;98253.38;4938303;29;20115;-83
2024/03/12 10:06:06;;;;;;;12.15;5.85;;;;;;;21.49;50.37;98244.84;4938130;29;20114;-81
2024/03/12 10:08:32;;;;;;;10.60;5.57;;;;;;;21.89;49.16;98240.66;4938939;29;20426;-83
2024/03/12 10:10:58;;;;;;;10.38;5.60;;;;;;;21.74;49.01;98248.78;4939092;28;20035;-82
2024/03/12 10:13:24;;;;;;;10.10;4.80;;;;;;;21.68;49.44;98235.31;4955340;29;20046;-80
2024/03/12 10:15:58;;;;;;;10.15;4.57;;;;;;;21.75;49.14;98227.34;4955908;29;20114;-80
2024/03/12 10:18:26;;;;;;;9.10;4.68;;;;;;;22.25;48.30;98220.84;4940075;28;20035;-82
2024/03/12 10:21:01;;;;;;;11.07;4.80;;;;;;;22.42;47.95;98210.63;4940386;28;20123;-82
2024/03/12 10:23:33;;;;;;;8.45;4.53;;;;;;;22.84;47.57;98212.00;4937955;28;20516;-82
2024/03/12 10:26:15;;;;;;;9.35;5.18;;;;;;;23.14;46.87;98216.03;4958675;28;20030;-82
2024/03/12 10:28:43;;;;;;;8.25;4.55;;;;;;;23.43;46.45;98214.66;4959258;28;20073;-82
2024/03/12 10:31:09;;;;;;;8.02;4.45;;;;;;;23.59;46.13;98206.16;4958589;28;20545;-81
2024/03/12 10:33:53;;;;;;;6.80;4.40;;;;;;;23.78;45.93;98196.44;4941876;28;20042;-83
2024/03/12 10:36:29;;;;;;;8.45;4.13;;;;;;;24.00;45.87;98202.25;4944006;28;20039;-82
2024/03/12 10:38:55;;;;;;;6.93;4.18;;;;;;;24.24;45.51;98207.75;4943860;28;20518;-83
2024/03/12 10:41:21;;;;;;;7.00;3.92;;;;;;;24.41;44.98;98197.38;4941938;28;20085;-80
2024/03/12 10:43:54;;;;;;;6.85;4.20;;;;;;;24.54;44.98;98193.75;4958304;28;20117;-81
2024/03/12 10:46:21;;;;;;;6.07;3.50;;;;;;;24.63;44.68;98188.97;4959620;28;20039;-78
2024/03/12 10:48:47;;;;;;;7.10;3.63;;;;;;;24.70;44.38;98187.03;4942878;28;20508;-81
2024/03/12 10:51:17;;;;;;;6.03;4.35;;;;;;;24.81;43.67;98181.00;4943478;28;20125;-81
2024/03/12 10:53:43;;;;;;;6.15;3.83;;;;;;;24.80;43.54;98187.34;4943247;28;20033;-80
2024/03/12 10:56:12;;;;;;;6.60;3.65;;;;;;;24.83;42.79;98184.25;4958196;28;20058;-81
2024/03/12 10:58:37;;;;;;;7.32;3.88;;;;;;;24.79;42.86;98175.03;4974445;28;20545;-82
2024/03/12 11:01:05;;;;;;;6.75;3.97;;;;;;;24.80;42.58;98175.88;4941624;28;20046;-81
2024/03/12 11:03:31;;;;;;;7.20;3.40;;;;;;;24.76;42.45;98174.69;4942646;28;20593;-79
2024/03/12 11:05:57;;;;;;;6.20;3.50;;;;;;;24.68;42.19;98181.94;4958395;28;20453;-80
2024/03/12 11:08:23;;;;;;;6.43;3.47;;;;;;;24.64;41.71;98172.75;4942445;28;20034;-84
2024/03/12 11:10:49;;;;;;;7.60;3.38;;;;;;;24.60;41.66;98162.75;4942223;28;20042;-82
2024/03/12 11:13:20;;;;;;;5.20;3.40;;;;;;;24.48;41.79;98166.13;4958025;28;20039;-81
2024/03/12 11:15:46;;;;;;;3.35;2.78;;;;;;;24.38;41.60;98166.63;4942748;28;20027;-82
2024/03/12 11:18:13;;;;;;;4.03;2.45;;;;;;;24.27;41.43;98162.00;4941566;28;20054;-81
2024/03/12 11:20:42;;;;;;;6.72;3.05;;;;;;;24.19;41.79;98176.44;4958521;28;20114;-81
2024/03/12 11:23:07;;;;;;;4.55;3.03;;;;;;;23.94;41.93;98155.13;4941062;28;20037;-81
2024/03/12 11:25:39;;;;;;;5.10;2.70;;;;;;;23.87;42.48;98169.53;4941104;28;20066;-85
2024/03/12 11:28:24;;;;;;;5.20;2.75;;;;;;;23.67;42.79;98160.63;4973600;28;20046;-81
2024/03/12 11:31:04;;;;;;;5.57;2.95;;;;;;;23.54;42.86;98159.88;4958251;28;20509;-80
2024/03/12 11:33:51;;;;;;;6.82;2.80;;;;;;;23.42;43.18;98146.44;4958115;28;20026;-81
2024/03/12 11:36:24;;;;;;;4.55;2.65;;;;;;;23.31;43.60;98145.28;4973617;28;20030;-80
2024/03/12 11:38:54;;;;;;;4.53;2.33;;;;;;;23.23;43.77;98140.19;4957434;28;20553;-82